createdAt,value
2018-03-26T00:01:55.416Z,99417
2018-03-26T00:04:26.058Z,99405
2018-03-26T00:06:56.784Z,99399
2018-03-26T00:09:27.490Z,99397
2018-03-26T00:11:58.027Z,99396
2018-03-26T00:14:28.587Z,99399
2018-03-26T00:17:00.162Z,99399
2018-03-26T00:19:30.750Z,99392
2018-03-26T00:22:01.671Z,99391
2018-03-26T00:24:32.166Z,99387
2018-03-26T00:27:02.679Z,99382
2018-03-26T00:29:32.980Z,99373
2018-03-26T00:32:03.893Z,99373
2018-03-26T00:34:34.435Z,99370
2018-03-26T00:37:05.065Z,99367
2018-03-26T00:39:36.445Z,99367
2018-03-26T00:42:07.264Z,99366
2018-03-26T00:44:37.789Z,99369
2018-03-26T00:47:08.425Z,99371
2018-03-26T00:49:39.829Z,99387
2018-03-26T00:52:10.274Z,99393
2018-03-26T00:54:40.834Z,99408
2018-03-26T00:57:12.684Z,99427
2018-03-26T00:59:43.629Z,99438
2018-03-26T01:02:14.739Z,99450
2018-03-26T01:04:45.653Z,99447
2018-03-26T01:07:16.272Z,99447
2018-03-26T01:09:46.671Z,99449
2018-03-26T01:12:17.441Z,99442
2018-03-26T01:14:48.088Z,99420
2018-03-26T01:17:18.637Z,99396
2018-03-26T01:19:49.522Z,99358
2018-03-26T01:22:20.389Z,99319
2018-03-26T01:24:50.823Z,99269
2018-03-26T01:27:20.679Z,99206
2018-03-26T01:29:51.182Z,99217
2018-03-26T01:32:21.751Z,99223
2018-03-26T01:34:52.027Z,99217
2018-03-26T01:37:22.596Z,99222
2018-03-26T01:39:53.664Z,99223
2018-03-26T01:42:26.821Z,99234
2018-03-26T01:44:57.261Z,99236
2018-03-26T01:47:27.568Z,99238
2018-03-26T01:49:58.485Z,99261
2018-03-26T01:52:28.936Z,99283
2018-03-26T01:54:59.385Z,99284
2018-03-26T01:57:29.674Z,99288
2018-03-26T02:00:00.115Z,99304
2018-03-26T02:02:32.361Z,99312
2018-03-26T02:05:03.091Z,99314
2018-03-26T02:07:33.787Z,99313
2018-03-26T02:10:04.514Z,99304
2018-03-26T02:12:35.022Z,99301
2018-03-26T02:15:05.850Z,99307
2018-03-26T02:17:36.186Z,99308
2018-03-26T02:20:06.588Z,99323
2018-03-26T02:22:37.639Z,99332
2018-03-26T02:25:08.275Z,99339
2018-03-26T02:27:38.874Z,99345
2018-03-26T02:30:09.670Z,99339
2018-03-26T02:32:40.391Z,99348
2018-03-26T02:35:11.031Z,99351
2018-03-26T02:37:41.329Z,99348
2018-03-26T02:40:11.851Z,99340
2018-03-26T02:42:41.881Z,99331
2018-03-26T02:45:12.622Z,99319
2018-03-26T02:47:43.159Z,99316
2018-03-26T02:50:15.204Z,99316
2018-03-26T02:52:45.747Z,99319
2018-03-26T02:55:16.369Z,99311
2018-03-26T02:57:47.043Z,99307
2018-03-26T03:00:18.151Z,99319
2018-03-26T03:02:47.960Z,99333
2018-03-26T03:05:19.015Z,99337
2018-03-26T03:07:48.996Z,99337
2018-03-26T03:10:19.822Z,99322
2018-03-26T03:12:49.773Z,99319
2018-03-26T03:15:20.893Z,99318
2018-03-26T03:17:50.933Z,99323
2018-03-26T03:20:21.670Z,99316
2018-03-26T03:22:52.508Z,99335
2018-03-26T03:25:23.444Z,99334
2018-03-26T03:27:54.398Z,99341
2018-03-26T03:30:25.204Z,99333
2018-03-26T03:32:55.835Z,99333
2018-03-26T03:35:26.773Z,99338
2018-03-26T03:37:57.670Z,99321
2018-03-26T03:40:28.359Z,99320
2018-03-26T03:42:59.665Z,99324
2018-03-26T03:45:29.615Z,99321
2018-03-26T03:48:00.151Z,99329
2018-03-26T03:50:31.320Z,99329
2018-03-26T03:53:02.958Z,99326
2018-03-26T03:55:33.273Z,99324
2018-03-26T03:58:04.035Z,99326
2018-03-26T04:00:34.810Z,99329
2018-03-26T04:03:07.015Z,99321
2018-03-26T04:05:37.332Z,99314
2018-03-26T04:08:08.342Z,99303
2018-03-26T04:10:39.221Z,99307
2018-03-26T04:13:10.647Z,99311
2018-03-26T04:15:41.173Z,99299
2018-03-26T04:18:11.975Z,99296
2018-03-26T04:20:42.558Z,99303
2018-03-26T04:23:13.509Z,99299
2018-03-26T04:25:43.614Z,99309
2018-03-26T04:28:14.169Z,99307
2018-03-26T04:30:45.034Z,99310
2018-03-26T04:33:15.516Z,99322
2018-03-26T04:35:45.795Z,99328
2018-03-26T04:38:16.734Z,99322
2018-03-26T04:40:47.489Z,99316
2018-03-26T04:43:17.816Z,99318
2018-03-26T04:45:49.494Z,99317
2018-03-26T04:48:20.012Z,99321
2018-03-26T04:50:50.754Z,99321
2018-03-26T04:53:21.432Z,99340
2018-03-26T04:55:51.823Z,99345
2018-03-26T04:58:22.793Z,99335
2018-03-26T05:00:53.344Z,99334
2018-03-26T05:03:24.015Z,99326
2018-03-26T05:05:54.439Z,99324
2018-03-26T05:08:25.116Z,99317
2018-03-26T05:10:55.468Z,99302
2018-03-26T05:13:26.427Z,99301
2018-03-26T05:15:56.741Z,99305
2018-03-26T05:18:28.017Z,99306
2018-03-26T05:20:59.227Z,99303
2018-03-26T05:23:30.054Z,99297
2018-03-26T05:26:00.889Z,99301
2018-03-26T05:28:32.497Z,99303
2018-03-26T05:31:03.894Z,99302
2018-03-26T05:33:34.122Z,99302
2018-03-26T05:36:03.877Z,99313
2018-03-26T05:38:33.842Z,99318
2018-03-26T05:41:05.167Z,99322
2018-03-26T05:43:36.120Z,99324
2018-03-26T05:46:06.961Z,99317
2018-03-26T05:48:38.331Z,99323
2018-03-26T05:51:08.182Z,99320
2018-03-26T05:53:38.909Z,99328
2018-03-26T05:56:09.726Z,99331
2018-03-26T05:58:40.241Z,99325
2018-03-26T06:01:11.648Z,99325
2018-03-26T06:03:41.726Z,99330
2018-03-26T06:06:11.645Z,99326
2018-03-26T06:08:42.283Z,99319
2018-03-26T06:11:13.074Z,99305
2018-03-26T06:13:43.826Z,99298
2018-03-26T06:16:14.775Z,99286
2018-03-26T06:18:45.442Z,99275
2018-03-26T06:21:15.950Z,99273
2018-03-26T06:23:46.685Z,99270
2018-03-26T06:26:17.108Z,99269
2018-03-26T06:28:47.768Z,99282
2018-03-26T06:31:18.833Z,99288
2018-03-26T06:33:49.204Z,99289
2018-03-26T06:36:36.222Z,99285
2018-03-26T06:39:12.468Z,99282
2018-03-26T06:41:43.696Z,99282
2018-03-26T06:44:14.428Z,99279
2018-03-26T06:46:45.402Z,99284
2018-03-26T06:49:15.638Z,99284
2018-03-26T06:51:46.342Z,99276
2018-03-26T06:54:16.791Z,99267
2018-03-26T06:56:47.760Z,99270
2018-03-26T06:59:18.439Z,99284
2018-03-26T07:01:49.348Z,99295
2018-03-26T07:04:20.304Z,99288
2018-03-26T07:06:51.562Z,99288
2018-03-26T07:09:21.943Z,99288
2018-03-26T07:11:52.441Z,99294
2018-03-26T07:14:23.342Z,99304
2018-03-26T07:16:53.884Z,99310
2018-03-26T07:19:24.334Z,99306
2018-03-26T07:21:54.890Z,99295
2018-03-26T07:24:26.024Z,99281
2018-03-26T07:26:56.919Z,99285
2018-03-26T07:29:27.258Z,99286
2018-03-26T07:31:57.849Z,99296
2018-03-26T07:34:29.304Z,99303
2018-03-26T07:36:59.996Z,99306
2018-03-26T07:39:30.799Z,99314
2018-03-26T07:42:01.415Z,99315
2018-03-26T07:44:32.086Z,99304
2018-03-26T07:47:02.524Z,99295
2018-03-26T07:49:33.324Z,99293
2018-03-26T07:52:03.873Z,99315
2018-03-26T07:54:34.727Z,99320
2018-03-26T07:57:05.472Z,99319
2018-03-26T07:59:35.477Z,99322
2018-03-26T08:02:06.031Z,99324
2018-03-26T08:04:37.040Z,99325
2018-03-26T08:07:07.783Z,99325
2018-03-26T08:09:38.481Z,99315
2018-03-26T08:12:09.940Z,99300
2018-03-26T08:14:40.583Z,99301
2018-03-26T08:17:11.420Z,99300
2018-03-26T08:19:42.111Z,99293
2018-03-26T08:22:13.249Z,99283
2018-03-26T08:24:44.182Z,99276
2018-03-26T08:27:14.665Z,99265
2018-03-26T08:29:45.149Z,99258
2018-03-26T08:32:16.210Z,99256
2018-03-26T08:34:47.078Z,99254
2018-03-26T08:37:17.533Z,99257
2018-03-26T08:39:48.965Z,99261
2018-03-26T08:42:19.648Z,99251
2018-03-26T08:44:50.539Z,99260
2018-03-26T08:47:21.133Z,99256
2018-03-26T08:49:51.026Z,99250
2018-03-26T08:52:22.012Z,99250
2018-03-26T08:54:52.827Z,99245
2018-03-26T08:57:24.000Z,99233
2018-03-26T08:59:54.996Z,99230
2018-03-26T09:02:26.098Z,99225
2018-03-26T09:04:57.393Z,99230
2018-03-26T09:07:28.692Z,99224
2018-03-26T09:09:59.632Z,99227
2018-03-26T09:12:30.548Z,99223
2018-03-26T09:15:01.393Z,99219
2018-03-26T09:17:32.111Z,99216
2018-03-26T09:20:03.316Z,99215
2018-03-26T09:22:33.458Z,99206
2018-03-26T09:25:04.960Z,99206
2018-03-26T09:27:36.040Z,99204
2018-03-26T09:30:07.220Z,99200
2018-03-26T09:32:38.158Z,99201
2018-03-26T09:35:08.453Z,99210
2018-03-26T09:37:39.076Z,99206
2018-03-26T09:40:09.844Z,99201
2018-03-26T09:42:40.185Z,99201
2018-03-26T09:45:10.393Z,99205
2018-03-26T09:47:40.773Z,99214
2018-03-26T09:50:11.591Z,99217
2018-03-26T09:52:42.543Z,99216
2018-03-26T09:55:13.106Z,99212
2018-03-26T09:57:44.272Z,99206
2018-03-26T10:00:17.576Z,99198
2018-03-26T10:02:48.402Z,99196
2018-03-26T10:05:18.922Z,99212
2018-03-26T10:07:49.638Z,99211
2018-03-26T10:10:20.291Z,99199
2018-03-26T10:12:50.928Z,99182
2018-03-26T10:15:21.566Z,99172
2018-03-26T10:17:52.192Z,99165
2018-03-26T10:20:22.993Z,99168
2018-03-26T10:22:53.248Z,99164
2018-03-26T10:25:23.773Z,99166
2018-03-26T10:27:55.437Z,99172
2018-03-26T10:30:26.166Z,99165
2018-03-26T10:32:57.351Z,99160
2018-03-26T10:35:27.838Z,99162
2018-03-26T10:37:59.194Z,99164
2018-03-26T10:40:30.128Z,99165
2018-03-26T10:43:00.870Z,99166
2018-03-26T10:45:31.391Z,99171
2018-03-26T10:48:02.023Z,99164
2018-03-26T10:50:31.940Z,99172
2018-03-26T10:53:02.877Z,99173
2018-03-26T10:55:33.836Z,99170
2018-03-26T10:58:04.796Z,99168
2018-03-26T11:00:35.278Z,99165
2018-03-26T11:03:05.947Z,99162
2018-03-26T11:05:37.330Z,99150
2018-03-26T11:08:07.852Z,99154
2018-03-26T11:10:38.545Z,99162
2018-03-26T11:13:09.482Z,99162
2018-03-26T11:15:40.070Z,99155
2018-03-26T11:18:10.514Z,99153
2018-03-26T11:20:41.461Z,99163
2018-03-26T11:23:12.312Z,99155
2018-03-26T11:25:42.911Z,99159
2018-03-26T11:28:12.753Z,99151
2018-03-26T11:30:43.468Z,99145
2018-03-26T11:33:14.071Z,99136
2018-03-26T11:35:44.746Z,99139
2018-03-26T11:38:15.739Z,99139
2018-03-26T11:40:46.156Z,99141
2018-03-26T11:43:16.804Z,99141
2018-03-26T11:45:47.084Z,99139
2018-03-26T11:48:17.859Z,99132
2018-03-26T11:50:48.229Z,99141
2018-03-26T11:53:19.177Z,99139
2018-03-26T11:55:49.946Z,99134
2018-03-26T11:58:20.617Z,99132
2018-03-26T12:00:51.585Z,99128
2018-03-26T12:03:23.642Z,99128
2018-03-26T12:05:53.918Z,99123
2018-03-26T12:08:24.476Z,99122
2018-03-26T12:10:55.218Z,99117
2018-03-26T12:13:25.858Z,99109
2018-03-26T12:15:56.942Z,99119
2018-03-26T12:18:27.472Z,99104
2018-03-26T12:21:01.808Z,99109
2018-03-26T12:23:43.988Z,99106
2018-03-26T12:26:14.261Z,99100
2018-03-26T12:28:56.472Z,99098
2018-03-26T12:31:27.439Z,99099
2018-03-26T12:34:09.508Z,99095
2018-03-26T12:36:39.797Z,99089
2018-03-26T12:39:10.641Z,99090
2018-03-26T12:41:41.295Z,99088
2018-03-26T12:44:11.856Z,99084
2018-03-26T12:46:46.178Z,99095
2018-03-26T12:49:16.568Z,99100
2018-03-26T12:51:58.690Z,99092
2018-03-26T12:54:28.704Z,99104
2018-03-26T12:57:10.599Z,99108
2018-03-26T12:59:41.456Z,99103
2018-03-26T13:02:23.022Z,99105
2018-03-26T13:04:53.839Z,99093
2018-03-26T13:07:25.212Z,99088
2018-03-26T13:09:55.819Z,99083
2018-03-26T13:12:26.156Z,99083
2018-03-26T13:14:56.402Z,99078
2018-03-26T13:17:27.164Z,99072
2018-03-26T13:19:57.846Z,99064
2018-03-26T13:22:28.687Z,99057
2018-03-26T13:24:59.599Z,99055
2018-03-26T13:27:30.441Z,99050
2018-03-26T13:30:00.769Z,99046
2018-03-26T13:32:31.577Z,99048
2018-03-26T13:35:02.622Z,99050
2018-03-26T13:37:34.169Z,99058
2018-03-26T13:40:05.562Z,99056
2018-03-26T13:42:35.740Z,99056
2018-03-26T13:45:06.015Z,99052
2018-03-26T13:47:36.434Z,99042
2018-03-26T13:50:07.041Z,99041
2018-03-26T13:52:37.384Z,99036
2018-03-26T13:55:08.234Z,99043
2018-03-26T13:57:39.021Z,99037
2018-03-26T14:00:10.096Z,99035
2018-03-26T14:02:40.737Z,99044
2018-03-26T14:05:11.118Z,99044
2018-03-26T14:07:42.181Z,99045
2018-03-26T14:10:24.327Z,99037
2018-03-26T14:13:06.007Z,99039
2018-03-26T14:15:48.354Z,99045
2018-03-26T14:18:19.138Z,99043
2018-03-26T14:20:49.775Z,99040
2018-03-26T14:23:20.523Z,99034
2018-03-26T14:25:51.147Z,99036
2018-03-26T14:28:21.978Z,99024
2018-03-26T14:30:52.311Z,99032
2018-03-26T14:33:22.828Z,99027
2018-03-26T14:35:52.963Z,99025
2018-03-26T14:38:23.899Z,99024
2018-03-26T14:40:54.412Z,99023
2018-03-26T14:43:25.280Z,99027
2018-03-26T14:45:56.483Z,99028
2018-03-26T14:48:27.497Z,99031
2018-03-26T14:50:58.336Z,99024
2018-03-26T14:53:29.211Z,99025
2018-03-26T14:56:00.753Z,99019
2018-03-26T14:58:31.777Z,99016
2018-03-26T15:01:02.680Z,99021
2018-03-26T15:03:34.200Z,99017
2018-03-26T15:06:05.318Z,99024
2018-03-26T15:08:35.462Z,99028
2018-03-26T15:11:06.611Z,99029
2018-03-26T15:13:37.613Z,99029
2018-03-26T15:16:07.968Z,99042
2018-03-26T15:18:38.295Z,99040
2018-03-26T15:21:09.234Z,99042
2018-03-26T15:23:40.051Z,99038
2018-03-26T15:26:11.267Z,99044
2018-03-26T15:28:42.508Z,99045
2018-03-26T15:31:13.630Z,99040
2018-03-26T15:33:43.982Z,99045
2018-03-26T15:36:14.565Z,99047
2018-03-26T15:38:45.622Z,99045
2018-03-26T15:41:16.925Z,99051
2018-03-26T15:43:47.685Z,99058
2018-03-26T15:46:18.847Z,99059
2018-03-26T15:48:48.737Z,99055
2018-03-26T15:51:19.295Z,99058
2018-03-26T15:53:49.706Z,99062
2018-03-26T15:56:20.047Z,99058
2018-03-26T15:58:50.761Z,99063
2018-03-26T16:01:21.451Z,99062
2018-03-26T16:03:52.392Z,99066
2018-03-26T16:06:22.922Z,99068
2018-03-26T16:08:53.549Z,99064
2018-03-26T16:11:24.207Z,99066
2018-03-26T16:13:54.040Z,99079
2018-03-26T16:16:24.873Z,99084
2018-03-26T16:18:55.782Z,99082
2018-03-26T16:21:27.214Z,99081
2018-03-26T16:23:57.898Z,99085
2018-03-26T16:26:29.019Z,99088
2018-03-26T16:29:00.142Z,99090
2018-03-26T16:31:30.903Z,99087
2018-03-26T16:34:01.540Z,99088
2018-03-26T16:36:31.512Z,99087
2018-03-26T16:39:02.095Z,99084
2018-03-26T16:41:44.305Z,99082
2018-03-26T16:44:15.423Z,99084
2018-03-26T16:46:46.261Z,99087
2018-03-26T16:49:17.349Z,99089
2018-03-26T16:51:47.900Z,99087
2018-03-26T16:54:18.780Z,99089
2018-03-26T16:56:50.012Z,99090
2018-03-26T16:59:21.114Z,99087
2018-03-26T17:01:51.870Z,99087
2018-03-26T17:04:22.873Z,99090
2018-03-26T17:06:53.873Z,99098
2018-03-26T17:09:24.590Z,99098
2018-03-26T17:11:55.906Z,99104
2018-03-26T17:14:26.770Z,99106
2018-03-26T17:16:58.516Z,99111
2018-03-26T17:19:28.385Z,99120
2018-03-26T17:21:59.659Z,99123
2018-03-26T17:24:30.199Z,99119
2018-03-26T17:27:01.064Z,99122
2018-03-26T17:29:32.011Z,99129
2018-03-26T17:32:03.134Z,99129
2018-03-26T17:34:34.415Z,99132
2018-03-26T17:37:05.132Z,99129
2018-03-26T17:39:35.579Z,99129
2018-03-26T17:42:07.588Z,99128
2018-03-26T17:44:38.102Z,99132
2018-03-26T17:47:09.457Z,99131
2018-03-26T17:49:40.133Z,99131
2018-03-26T17:52:11.226Z,99135
2018-03-26T17:54:42.465Z,99136
2018-03-26T17:57:13.312Z,99135
2018-03-26T17:59:44.521Z,99129
2018-03-26T18:02:15.767Z,99134
2018-03-26T18:04:46.404Z,99127
2018-03-26T18:07:17.241Z,99136
2018-03-26T18:09:48.515Z,99134
2018-03-26T18:12:19.134Z,99128
2018-03-26T18:14:49.952Z,99122
2018-03-26T18:17:20.483Z,99119
2018-03-26T18:19:50.918Z,99119
2018-03-26T18:22:20.897Z,99129
2018-03-26T18:24:52.147Z,99132
2018-03-26T18:27:23.005Z,99130
2018-03-26T18:29:53.745Z,99132
2018-03-26T18:32:24.295Z,99133
2018-03-26T18:34:54.975Z,99135
2018-03-26T18:37:25.847Z,99145
2018-03-26T18:39:56.437Z,99144
2018-03-26T18:42:26.917Z,99150
2018-03-26T18:44:57.605Z,99152
2018-03-26T18:47:28.370Z,99143
2018-03-26T18:49:59.489Z,99144
2018-03-26T18:52:29.852Z,99145
2018-03-26T18:55:00.590Z,99148
2018-03-26T18:57:30.492Z,99144
2018-03-26T19:00:01.545Z,99144
2018-03-26T19:02:32.058Z,99138
2018-03-26T19:05:02.347Z,99139
2018-03-26T19:07:33.031Z,99133
2018-03-26T19:10:03.709Z,99136
2018-03-26T19:12:33.937Z,99131
2018-03-26T19:15:04.458Z,99131
2018-03-26T19:17:34.515Z,99135
2018-03-26T19:20:05.261Z,99136
2018-03-26T19:22:35.782Z,99145
2018-03-26T19:25:06.636Z,99146
2018-03-26T19:27:37.365Z,99153
2018-03-26T19:30:07.993Z,99154
2018-03-26T19:32:38.843Z,99153
2018-03-26T19:35:09.765Z,99154
2018-03-26T19:37:40.612Z,99156
2018-03-26T19:40:11.594Z,99147
2018-03-26T19:42:41.826Z,99148
2018-03-26T19:45:12.083Z,99146
2018-03-26T19:47:42.823Z,99146
2018-03-26T19:50:13.615Z,99143
2018-03-26T19:52:44.603Z,99147
2018-03-26T19:55:15.007Z,99138
2018-03-26T19:57:45.346Z,99139
2018-03-26T20:00:16.350Z,99142
2018-03-26T20:02:47.441Z,99147
2018-03-26T20:05:17.639Z,99146
2018-03-26T20:07:48.662Z,99144
2018-03-26T20:10:19.398Z,99147
2018-03-26T20:12:50.332Z,99138
2018-03-26T20:15:21.313Z,99134
2018-03-26T20:17:52.150Z,99136
2018-03-26T20:20:22.886Z,99134
2018-03-26T20:22:54.029Z,99139
2018-03-26T20:25:24.617Z,99132
2018-03-26T20:27:55.613Z,99130
2018-03-26T20:30:26.622Z,99126
2018-03-26T20:32:57.129Z,99122
2018-03-26T20:35:28.483Z,99108
2018-03-26T20:37:59.299Z,99102
2018-03-26T20:40:30.083Z,99103
2018-03-26T20:43:00.911Z,99099
2018-03-26T20:45:31.814Z,99104
2018-03-26T20:48:02.742Z,99097
2018-03-26T20:50:33.083Z,99105
2018-03-26T20:53:03.631Z,99102
2018-03-26T20:55:34.376Z,99100
2018-03-26T20:58:04.825Z,99100
2018-03-26T21:00:35.702Z,99096
2018-03-26T21:03:06.182Z,99098
2018-03-26T21:05:36.799Z,99095
2018-03-26T21:08:07.428Z,99094
2018-03-26T21:10:38.579Z,99090
2018-03-26T21:13:09.684Z,99091
2018-03-26T21:15:40.269Z,99092
2018-03-26T21:18:11.152Z,99091
2018-03-26T21:20:41.236Z,99084
2018-03-26T21:23:11.830Z,99082
2018-03-26T21:25:42.468Z,99083
2018-03-26T21:28:13.317Z,99080
2018-03-26T21:30:45.428Z,99077
2018-03-26T21:33:15.959Z,99078
2018-03-26T21:35:46.747Z,99080
2018-03-26T21:38:17.369Z,99078
2018-03-26T21:40:48.016Z,99077
2018-03-26T21:43:17.911Z,99075
2018-03-26T21:45:48.355Z,99074
2018-03-26T21:48:19.785Z,99071
2018-03-26T21:50:52.274Z,99077
2018-03-26T21:53:23.079Z,99069
2018-03-26T21:55:53.216Z,99071
2018-03-26T21:58:24.163Z,99069
2018-03-26T22:00:54.770Z,99078
2018-03-26T22:03:25.582Z,99079
2018-03-26T22:05:57.153Z,99080
2018-03-26T22:08:27.711Z,99088
2018-03-26T22:10:58.936Z,99086
2018-03-26T22:13:29.080Z,99089
2018-03-26T22:15:59.419Z,99089
2018-03-26T22:18:29.311Z,99090
2018-03-26T22:20:59.720Z,99087
2018-03-26T22:23:29.979Z,99085
2018-03-26T22:26:00.423Z,99084
2018-03-26T22:28:31.224Z,99089
2018-03-26T22:31:02.061Z,99095
2018-03-26T22:33:33.136Z,99099
2018-03-26T22:36:03.135Z,99104
2018-03-26T22:38:33.055Z,99105
2018-03-26T22:41:03.541Z,99104
2018-03-26T22:43:34.082Z,99107
2018-03-26T22:46:04.909Z,99111
2018-03-26T22:48:35.449Z,99111
2018-03-26T22:51:06.181Z,99111
2018-03-26T22:53:36.625Z,99115
2018-03-26T22:56:07.265Z,99111
2018-03-26T22:58:37.884Z,99109
2018-03-26T23:01:07.693Z,99107
2018-03-26T23:03:38.250Z,99105
2018-03-26T23:06:08.887Z,99105
2018-03-26T23:08:39.548Z,99108
2018-03-26T23:11:10.358Z,99108
2018-03-26T23:13:41.213Z,99107
2018-03-26T23:16:12.325Z,99109
2018-03-26T23:18:42.739Z,99107
2018-03-26T23:21:13.167Z,99106
2018-03-26T23:23:43.725Z,99106
2018-03-26T23:26:14.506Z,99115
2018-03-26T23:28:44.989Z,99114
2018-03-26T23:31:15.928Z,99118
2018-03-26T23:33:46.437Z,99126
2018-03-26T23:36:16.766Z,99122
2018-03-26T23:38:47.847Z,99123
2018-03-26T23:41:18.641Z,99122
2018-03-26T23:43:49.354Z,99125
2018-03-26T23:46:20.134Z,99132
2018-03-26T23:48:50.520Z,99128
2018-03-26T23:51:21.264Z,99125
2018-03-26T23:53:53.644Z,99116
2018-03-26T23:56:24.667Z,99124
2018-03-26T23:58:55.190Z,99119
